sensor_id;sensor_type;location;lat;lon;timestamp;P1;durP1;ratioP1;P2;durP2;ratioP2
68803;SDS011;55787;52.678;13.314;2023-10-09T00:01:04;7.97;;;2.45;;
68803;SDS011;55787;52.678;13.314;2023-10-09T00:03:43;8.65;;;2.78;;
68803;SDS011;55787;52.678;13.314;2023-10-09T00:06:11;7.90;;;2.75;;
68803;SDS011;55787;52.678;13.314;2023-10-09T00:08:40;9.43;;;2.50;;
68803;SDS011;55787;52.678;13.314;2023-10-09T00:11:11;8.80;;;3.10;;
68803;SDS011;55787;52.678;13.314;2023-10-09T00:13:44;9.32;;;3.00;;
68803;SDS011;55787;52.678;13.314;2023-10-09T00:16:16;10.52;;;3.35;;
68803;SDS011;55787;52.678;13.314;2023-10-09T00:18:44;9.23;;;3.10;;
68803;SDS011;55787;52.678;13.314;2023-10-09T00:21:16;10.00;;;3.00;;
68803;SDS011;55787;52.678;13.314;2023-10-09T00:23:46;8.30;;;2.80;;
68803;SDS011;55787;52.678;13.314;2023-10-09T00:26:21;9.40;;;2.78;;
68803;SDS011;55787;52.678;13.314;2023-10-09T00:28:48;9.88;;;2.67;;
68803;SDS011;55787;52.678;13.314;2023-10-09T00:31:20;9.98;;;3.30;;
68803;SDS011;55787;52.678;13.314;2023-10-09T00:34:02;11.07;;;3.40;;
68803;SDS011;55787;52.678;13.314;2023-10-09T00:36:31;9.43;;;3.10;;
68803;SDS011;55787;52.678;13.314;2023-10-09T00:38:59;9.90;;;2.92;;
68803;SDS011;55787;52.678;13.314;2023-10-09T00:41:37;8.98;;;3.20;;
68803;SDS011;55787;52.678;13.314;2023-10-09T00:44:07;10.05;;;3.22;;
68803;SDS011;55787;52.678;13.314;2023-10-09T00:46:34;10.70;;;3.20;;
68803;SDS011;55787;52.678;13.314;2023-10-09T00:49:01;8.95;;;3.00;;
68803;SDS011;55787;52.678;13.314;2023-10-09T00:51:29;8.95;;;3.00;;
68803;SDS011;55787;52.678;13.314;2023-10-09T00:54:04;7.90;;;2.70;;
68803;SDS011;55787;52.678;13.314;2023-10-09T00:56:41;9.50;;;2.92;;
68803;SDS011;55787;52.678;13.314;2023-10-09T00:59:18;9.57;;;3.13;;
68803;SDS011;55787;52.678;13.314;2023-10-09T01:01:47;10.82;;;2.88;;
68803;SDS011;55787;52.678;13.314;2023-10-09T01:04:24;8.98;;;3.10;;
68803;SDS011;55787;52.678;13.314;2023-10-09T01:06:52;9.65;;;2.90;;
68803;SDS011;55787;52.678;13.314;2023-10-09T01:09:41;9.68;;;3.13;;
68803;SDS011;55787;52.678;13.314;2023-10-09T01:12:11;8.87;;;2.83;;
68803;SDS011;55787;52.678;13.314;2023-10-09T01:14:43;8.55;;;3.00;;
68803;SDS011;55787;52.678;13.314;2023-10-09T01:17:10;8.95;;;3.05;;
68803;SDS011;55787;52.678;13.314;2023-10-09T01:19:38;8.43;;;2.80;;
68803;SDS011;55787;52.678;13.314;2023-10-09T01:25:51;9.13;;;3.00;;
68803;SDS011;55787;52.678;13.314;2023-10-09T01:28:19;9.32;;;2.70;;
68803;SDS011;55787;52.678;13.314;2023-10-09T01:30:45;8.45;;;2.60;;
68803;SDS011;55787;52.678;13.314;2023-10-09T01:33:13;8.93;;;2.72;;
68803;SDS011;55787;52.678;13.314;2023-10-09T01:35:50;7.65;;;2.28;;
68803;SDS011;55787;52.678;13.314;2023-10-09T01:38:22;9.03;;;2.40;;
68803;SDS011;55787;52.678;13.314;2023-10-09T01:41:07;7.55;;;2.60;;
68803;SDS011;55787;52.678;13.314;2023-10-09T01:43:42;9.20;;;2.55;;
68803;SDS011;55787;52.678;13.314;2023-10-09T01:46:11;8.25;;;2.53;;
68803;SDS011;55787;52.678;13.314;2023-10-09T01:48:38;7.38;;;2.35;;
68803;SDS011;55787;52.678;13.314;2023-10-09T01:51:06;8.83;;;2.30;;
68803;SDS011;55787;52.678;13.314;2023-10-09T01:53:40;8.07;;;2.20;;
68803;SDS011;55787;52.678;13.314;2023-10-09T01:56:11;8.30;;;2.30;;
68803;SDS011;55787;52.678;13.314;2023-10-09T01:58:41;8.63;;;2.47;;
68803;SDS011;55787;52.678;13.314;2023-10-09T02:01:13;7.60;;;2.30;;
68803;SDS011;55787;52.678;13.314;2023-10-09T02:03:41;8.07;;;2.30;;
68803;SDS011;55787;52.678;13.314;2023-10-09T02:06:09;9.48;;;3.00;;
68803;SDS011;55787;52.678;13.314;2023-10-09T02:08:53;8.05;;;2.40;;
68803;SDS011;55787;52.678;13.314;2023-10-09T02:11:20;10.05;;;2.80;;
68803;SDS011;55787;52.678;13.314;2023-10-09T02:14:03;9.25;;;2.60;;
68803;SDS011;55787;52.678;13.314;2023-10-09T02:16:41;9.13;;;2.27;;
68803;SDS011;55787;52.678;13.314;2023-10-09T02:19:08;8.70;;;2.40;;
68803;SDS011;55787;52.678;13.314;2023-10-09T02:21:55;8.60;;;2.45;;
68803;SDS011;55787;52.678;13.314;2023-10-09T02:24:24;10.18;;;2.42;;
68803;SDS011;55787;52.678;13.314;2023-10-09T02:27:13;8.25;;;2.40;;
68803;SDS011;55787;52.678;13.314;2023-10-09T02:29:46;8.40;;;2.37;;
68803;SDS011;55787;52.678;13.314;2023-10-09T02:32:13;7.28;;;2.22;;
68803;SDS011;55787;52.678;13.314;2023-10-09T02:34:52;7.68;;;2.42;;
68803;SDS011;55787;52.678;13.314;2023-10-09T02:37:20;13.27;;;2.90;;
68803;SDS011;55787;52.678;13.314;2023-10-09T02:39:51;10.55;;;3.10;;
68803;SDS011;55787;52.678;13.314;2023-10-09T02:42:18;9.70;;;2.90;;
68803;SDS011;55787;52.678;13.314;2023-10-09T02:44:53;8.98;;;2.95;;
68803;SDS011;55787;52.678;13.314;2023-10-09T02:47:19;13.80;;;3.10;;
68803;SDS011;55787;52.678;13.314;2023-10-09T02:49:50;9.32;;;3.13;;
68803;SDS011;55787;52.678;13.314;2023-10-09T02:52:17;9.23;;;3.10;;
68803;SDS011;55787;52.678;13.314;2023-10-09T02:54:59;8.93;;;3.00;;
68803;SDS011;55787;52.678;13.314;2023-10-09T02:57:26;10.95;;;3.05;;
68803;SDS011;55787;52.678;13.314;2023-10-09T03:00:05;8.85;;;2.88;;
68803;SDS011;55787;52.678;13.314;2023-10-09T03:02:35;8.63;;;3.17;;
68803;SDS011;55787;52.678;13.314;2023-10-09T03:05:07;9.18;;;2.97;;
68803;SDS011;55787;52.678;13.314;2023-10-09T03:07:38;10.33;;;3.50;;
68803;SDS011;55787;52.678;13.314;2023-10-09T03:10:06;10.32;;;3.22;;
68803;SDS011;55787;52.678;13.314;2023-10-09T03:12:36;9.98;;;3.58;;
68803;SDS011;55787;52.678;13.314;2023-10-09T03:15:03;10.15;;;3.40;;
68803;SDS011;55787;52.678;13.314;2023-10-09T03:17:34;10.45;;;2.95;;
68803;SDS011;55787;52.678;13.314;2023-10-09T03:20:07;11.40;;;3.10;;
68803;SDS011;55787;52.678;13.314;2023-10-09T03:22:39;10.38;;;2.95;;
68803;SDS011;55787;52.678;13.314;2023-10-09T03:25:07;11.13;;;3.30;;
68803;SDS011;55787;52.678;13.314;2023-10-09T03:27:38;9.15;;;2.97;;
68803;SDS011;55787;52.678;13.314;2023-10-09T03:30:15;11.05;;;3.15;;
68803;SDS011;55787;52.678;13.314;2023-10-09T03:32:49;8.03;;;3.00;;
68803;SDS011;55787;52.678;13.314;2023-10-09T03:35:19;11.73;;;3.40;;
68803;SDS011;55787;52.678;13.314;2023-10-09T03:38:00;11.27;;;3.15;;
68803;SDS011;55787;52.678;13.314;2023-10-09T03:40:36;10.07;;;2.97;;
68803;SDS011;55787;52.678;13.314;2023-10-09T03:43:05;9.48;;;3.30;;
68803;SDS011;55787;52.678;13.314;2023-10-09T03:45:32;9.93;;;3.13;;
68803;SDS011;55787;52.678;13.314;2023-10-09T03:48:02;11.15;;;3.88;;
68803;SDS011;55787;52.678;13.314;2023-10-09T03:50:35;9.60;;;3.25;;
68803;SDS011;55787;52.678;13.314;2023-10-09T03:53:03;10.02;;;3.50;;
68803;SDS011;55787;52.678;13.314;2023-10-09T03:55:36;11.13;;;3.70;;
68803;SDS011;55787;52.678;13.314;2023-10-09T03:58:07;9.50;;;3.40;;
68803;SDS011;55787;52.678;13.314;2023-10-09T04:00:38;12.35;;;3.35;;
68803;SDS011;55787;52.678;13.314;2023-10-09T04:03:13;13.15;;;3.90;;
68803;SDS011;55787;52.678;13.314;2023-10-09T04:05:41;11.10;;;3.90;;
68803;SDS011;55787;52.678;13.314;2023-10-09T04:08:11;10.88;;;3.90;;
68803;SDS011;55787;52.678;13.314;2023-10-09T04:10:47;10.53;;;3.93;;
68803;SDS011;55787;52.678;13.314;2023-10-09T04:13:23;12.95;;;4.55;;
68803;SDS011;55787;52.678;13.314;2023-10-09T04:15:59;11.85;;;4.32;;
68803;SDS011;55787;52.678;13.314;2023-10-09T04:18:35;12.25;;;4.95;;
68803;SDS011;55787;52.678;13.314;2023-10-09T04:21:05;12.07;;;4.72;;
68803;SDS011;55787;52.678;13.314;2023-10-09T04:23:45;11.50;;;4.67;;
68803;SDS011;55787;52.678;13.314;2023-10-09T04:26:31;13.20;;;4.95;;
68803;SDS011;55787;52.678;13.314;2023-10-09T04:29:01;14.35;;;5.40;;
68803;SDS011;55787;52.678;13.314;2023-10-09T04:31:28;13.90;;;5.32;;
68803;SDS011;55787;52.678;13.314;2023-10-09T04:33:59;13.27;;;5.05;;
68803;SDS011;55787;52.678;13.314;2023-10-09T04:36:44;12.47;;;4.70;;
68803;SDS011;55787;52.678;13.314;2023-10-09T04:39:16;10.77;;;4.43;;
68803;SDS011;55787;52.678;13.314;2023-10-09T04:42:02;13.88;;;4.93;;
68803;SDS011;55787;52.678;13.314;2023-10-09T04:44:47;11.45;;;4.20;;
68803;SDS011;55787;52.678;13.314;2023-10-09T04:47:30;10.85;;;4.07;;
68803;SDS011;55787;52.678;13.314;2023-10-09T04:52:35;10.77;;;4.45;;
68803;SDS011;55787;52.678;13.314;2023-10-09T04:55:02;10.55;;;4.22;;
68803;SDS011;55787;52.678;13.314;2023-10-09T04:57:42;13.05;;;4.03;;
68803;SDS011;55787;52.678;13.314;2023-10-09T05:02:54;10.47;;;3.83;;
68803;SDS011;55787;52.678;13.314;2023-10-09T05:05:28;13.20;;;4.00;;
68803;SDS011;55787;52.678;13.314;2023-10-09T05:08:08;11.48;;;4.07;;
68803;SDS011;55787;52.678;13.314;2023-10-09T05:10:49;10.27;;;4.03;;
68803;SDS011;55787;52.678;13.314;2023-10-09T05:13:26;10.90;;;4.20;;
68803;SDS011;55787;52.678;13.314;2023-10-09T05:18:42;11.10;;;4.13;;
68803;SDS011;55787;52.678;13.314;2023-10-09T05:21:11;11.32;;;4.07;;
68803;SDS011;55787;52.678;13.314;2023-10-09T05:23:57;12.50;;;3.80;;
68803;SDS011;55787;52.678;13.314;2023-10-09T05:26:44;11.02;;;3.97;;
68803;SDS011;55787;52.678;13.314;2023-10-09T05:29:16;10.65;;;3.80;;
68803;SDS011;55787;52.678;13.314;2023-10-09T05:32:06;10.98;;;3.85;;
68803;SDS011;55787;52.678;13.314;2023-10-09T05:34:35;13.15;;;5.30;;
68803;SDS011;55787;52.678;13.314;2023-10-09T05:37:21;11.30;;;4.07;;
68803;SDS011;55787;52.678;13.314;2023-10-09T05:40:13;11.52;;;4.03;;
68803;SDS011;55787;52.678;13.314;2023-10-09T05:42:43;13.05;;;4.25;;
68803;SDS011;55787;52.678;13.314;2023-10-09T05:45:15;12.13;;;3.97;;
68803;SDS011;55787;52.678;13.314;2023-10-09T05:48:01;10.07;;;3.97;;
68803;SDS011;55787;52.678;13.314;2023-10-09T05:50:30;11.18;;;3.95;;
68803;SDS011;55787;52.678;13.314;2023-10-09T05:53:01;10.98;;;3.97;;
68803;SDS011;55787;52.678;13.314;2023-10-09T05:55:29;10.45;;;4.18;;
68803;SDS011;55787;52.678;13.314;2023-10-09T05:58:14;10.32;;;4.20;;
68803;SDS011;55787;52.678;13.314;2023-10-09T06:01:00;13.32;;;4.80;;
68803;SDS011;55787;52.678;13.314;2023-10-09T06:03:52;12.07;;;4.40;;
68803;SDS011;55787;52.678;13.314;2023-10-09T06:06:31;11.70;;;4.30;;
68803;SDS011;55787;52.678;13.314;2023-10-09T06:09:04;11.73;;;4.50;;
68803;SDS011;55787;52.678;13.314;2023-10-09T06:11:42;10.93;;;4.07;;
68803;SDS011;55787;52.678;13.314;2023-10-09T06:14:29;12.07;;;5.05;;
68803;SDS011;55787;52.678;13.314;2023-10-09T06:16:57;12.82;;;4.93;;
68803;SDS011;55787;52.678;13.314;2023-10-09T06:19:27;13.13;;;4.35;;
68803;SDS011;55787;52.678;13.314;2023-10-09T06:21:55;12.03;;;4.80;;
68803;SDS011;55787;52.678;13.314;2023-10-09T06:24:44;12.20;;;6.00;;
68803;SDS011;55787;52.678;13.314;2023-10-09T06:27:23;11.60;;;4.80;;
68803;SDS011;55787;52.678;13.314;2023-10-09T06:29:57;12.75;;;4.75;;
68803;SDS011;55787;52.678;13.314;2023-10-09T06:32:41;11.98;;;4.60;;
68803;SDS011;55787;52.678;13.314;2023-10-09T06:35:24;12.30;;;4.63;;
68803;SDS011;55787;52.678;13.314;2023-10-09T06:38:00;12.48;;;4.78;;
68803;SDS011;55787;52.678;13.314;2023-10-09T06:40:30;13.48;;;5.38;;
68803;SDS011;55787;52.678;13.314;2023-10-09T06:43:22;12.18;;;4.90;;
68803;SDS011;55787;52.678;13.314;2023-10-09T06:45:49;11.88;;;4.82;;
68803;SDS011;55787;52.678;13.314;2023-10-09T06:48:40;12.50;;;5.37;;
68803;SDS011;55787;52.678;13.314;2023-10-09T06:51:10;13.68;;;4.90;;
68803;SDS011;55787;52.678;13.314;2023-10-09T06:53:54;12.43;;;5.57;;
68803;SDS011;55787;52.678;13.314;2023-10-09T06:56:25;12.48;;;5.03;;
68803;SDS011;55787;52.678;13.314;2023-10-09T06:58:59;12.43;;;4.85;;
68803;SDS011;55787;52.678;13.314;2023-10-09T07:01:34;14.33;;;5.23;;
68803;SDS011;55787;52.678;13.314;2023-10-09T07:04:04;12.10;;;5.32;;
68803;SDS011;55787;52.678;13.314;2023-10-09T07:06:50;13.40;;;4.88;;
68803;SDS011;55787;52.678;13.314;2023-10-09T07:09:18;11.75;;;4.82;;
68803;SDS011;55787;52.678;13.314;2023-10-09T07:14:15;12.20;;;5.13;;
68803;SDS011;55787;52.678;13.314;2023-10-09T07:17:00;12.48;;;5.10;;
68803;SDS011;55787;52.678;13.314;2023-10-09T07:19:47;11.25;;;4.65;;
68803;SDS011;55787;52.678;13.314;2023-10-09T07:22:17;12.07;;;4.72;;
68803;SDS011;55787;52.678;13.314;2023-10-09T07:24:47;10.85;;;4.50;;
68803;SDS011;55787;52.678;13.314;2023-10-09T07:30:12;12.77;;;4.55;;
68803;SDS011;55787;52.678;13.314;2023-10-09T07:33:02;16.30;;;5.05;;
68803;SDS011;55787;52.678;13.314;2023-10-09T07:35:44;13.63;;;5.00;;
68803;SDS011;55787;52.678;13.314;2023-10-09T07:38:17;11.30;;;4.65;;
68803;SDS011;55787;52.678;13.314;2023-10-09T07:40:48;13.57;;;4.80;;
68803;SDS011;55787;52.678;13.314;2023-10-09T07:43:28;11.82;;;4.93;;
68803;SDS011;55787;52.678;13.314;2023-10-09T07:46:02;13.50;;;4.75;;
68803;SDS011;55787;52.678;13.314;2023-10-09T07:48:31;10.40;;;4.13;;
68803;SDS011;55787;52.678;13.314;2023-10-09T07:51:17;10.63;;;4.15;;
68803;SDS011;55787;52.678;13.314;2023-10-09T07:53:50;12.77;;;4.50;;
68803;SDS011;55787;52.678;13.314;2023-10-09T07:56:23;10.30;;;4.15;;
68803;SDS011;55787;52.678;13.314;2023-10-09T07:58:51;10.52;;;3.83;;
68803;SDS011;55787;52.678;13.314;2023-10-09T08:01:18;10.25;;;3.90;;
68803;SDS011;55787;52.678;13.314;2023-10-09T08:04:03;11.00;;;3.95;;
68803;SDS011;55787;52.678;13.314;2023-10-09T08:06:46;10.80;;;4.07;;
68803;SDS011;55787;52.678;13.314;2023-10-09T08:09:33;12.10;;;4.18;;
68803;SDS011;55787;52.678;13.314;2023-10-09T08:12:16;11.07;;;4.20;;
68803;SDS011;55787;52.678;13.314;2023-10-09T08:15:02;11.05;;;4.00;;
68803;SDS011;55787;52.678;13.314;2023-10-09T08:17:52;13.60;;;4.80;;
68803;SDS011;55787;52.678;13.314;2023-10-09T08:20:31;12.27;;;4.97;;
68803;SDS011;55787;52.678;13.314;2023-10-09T08:23:27;12.52;;;4.85;;
68803;SDS011;55787;52.678;13.314;2023-10-09T08:26:03;12.50;;;4.88;;
68803;SDS011;55787;52.678;13.314;2023-10-09T08:28:43;10.70;;;4.95;;
68803;SDS011;55787;52.678;13.314;2023-10-09T08:31:12;13.85;;;4.85;;
68803;SDS011;55787;52.678;13.314;2023-10-09T08:33:46;11.93;;;5.40;;
68803;SDS011;55787;52.678;13.314;2023-10-09T08:36:25;11.15;;;4.85;;
68803;SDS011;55787;52.678;13.314;2023-10-09T08:38:58;13.80;;;5.65;;
68803;SDS011;55787;52.678;13.314;2023-10-09T08:41:27;13.43;;;5.25;;
68803;SDS011;55787;52.678;13.314;2023-10-09T08:43:57;14.10;;;5.63;;
68803;SDS011;55787;52.678;13.314;2023-10-09T08:46:25;13.73;;;5.65;;
68803;SDS011;55787;52.678;13.314;2023-10-09T08:48:55;13.07;;;4.80;;
68803;SDS011;55787;52.678;13.314;2023-10-09T08:51:23;12.88;;;5.10;;
68803;SDS011;55787;52.678;13.314;2023-10-09T08:53:51;13.15;;;5.15;;
68803;SDS011;55787;52.678;13.314;2023-10-09T08:56:19;12.40;;;4.93;;
68803;SDS011;55787;52.678;13.314;2023-10-09T08:58:57;11.82;;;5.13;;
68803;SDS011;55787;52.678;13.314;2023-10-09T09:01:25;14.75;;;5.20;;
68803;SDS011;55787;52.678;13.314;2023-10-09T09:03:54;11.07;;;4.78;;
68803;SDS011;55787;52.678;13.314;2023-10-09T09:06:24;12.20;;;4.70;;
68803;SDS011;55787;52.678;13.314;2023-10-09T09:08:51;11.77;;;4.80;;
68803;SDS011;55787;52.678;13.314;2023-10-09T09:11:26;12.38;;;4.95;;
68803;SDS011;55787;52.678;13.314;2023-10-09T09:16:40;12.10;;;5.07;;
68803;SDS011;55787;52.678;13.314;2023-10-09T09:19:10;11.70;;;5.10;;
68803;SDS011;55787;52.678;13.314;2023-10-09T09:21:38;12.38;;;5.40;;
68803;SDS011;55787;52.678;13.314;2023-10-09T09:24:12;13.07;;;5.60;;
68803;SDS011;55787;52.678;13.314;2023-10-09T09:26:42;15.35;;;6.22;;
68803;SDS011;55787;52.678;13.314;2023-10-09T09:29:13;12.98;;;5.18;;
68803;SDS011;55787;52.678;13.314;2023-10-09T09:31:53;12.27;;;5.68;;
68803;SDS011;55787;52.678;13.314;2023-10-09T09:34:21;15.63;;;6.50;;
68803;SDS011;55787;52.678;13.314;2023-10-09T09:36:57;13.80;;;6.27;;
68803;SDS011;55787;52.678;13.314;2023-10-09T09:39:25;14.57;;;7.03;;
68803;SDS011;55787;52.678;13.314;2023-10-09T09:42:07;15.55;;;6.68;;
68803;SDS011;55787;52.678;13.314;2023-10-09T09:44:40;15.27;;;6.88;;
68803;SDS011;55787;52.678;13.314;2023-10-09T09:47:13;17.55;;;7.22;;
68803;SDS011;55787;52.678;13.314;2023-10-09T09:49:42;14.63;;;6.72;;
68803;SDS011;55787;52.678;13.314;2023-10-09T09:52:09;16.00;;;7.30;;
68803;SDS011;55787;52.678;13.314;2023-10-09T09:54:36;16.58;;;7.72;;
68803;SDS011;55787;52.678;13.314;2023-10-09T09:57:05;17.08;;;7.53;;
68803;SDS011;55787;52.678;13.314;2023-10-09T09:59:37;15.90;;;7.40;;
68803;SDS011;55787;52.678;13.314;2023-10-09T10:02:28;14.97;;;7.10;;
68803;SDS011;55787;52.678;13.314;2023-10-09T10:05:00;16.17;;;6.85;;
68803;SDS011;55787;52.678;13.314;2023-10-09T10:07:33;13.23;;;6.20;;
68803;SDS011;55787;52.678;13.314;2023-10-09T10:13:00;14.68;;;5.78;;
68803;SDS011;55787;52.678;13.314;2023-10-09T10:18:25;13.30;;;5.57;;
68803;SDS011;55787;52.678;13.314;2023-10-09T10:23:43;12.30;;;5.63;;
68803;SDS011;55787;52.678;13.314;2023-10-09T10:26:20;11.27;;;5.30;;
68803;SDS011;55787;52.678;13.314;2023-10-09T10:31:57;12.48;;;5.43;;
68803;SDS011;55787;52.678;13.314;2023-10-09T10:34:52;13.30;;;6.13;;
68803;SDS011;55787;52.678;13.314;2023-10-09T10:37:38;11.82;;;5.13;;
68803;SDS011;55787;52.678;13.314;2023-10-09T10:40:23;12.25;;;5.70;;
68803;SDS011;55787;52.678;13.314;2023-10-09T10:43:16;12.27;;;5.68;;
68803;SDS011;55787;52.678;13.314;2023-10-09T10:46:06;11.73;;;6.07;;
68803;SDS011;55787;52.678;13.314;2023-10-09T10:48:53;12.63;;;5.80;;
68803;SDS011;55787;52.678;13.314;2023-10-09T10:51:26;12.75;;;5.53;;
68803;SDS011;55787;52.678;13.314;2023-10-09T10:54:06;11.77;;;5.55;;
68803;SDS011;55787;52.678;13.314;2023-10-09T10:56:53;11.70;;;5.40;;
68803;SDS011;55787;52.678;13.314;2023-10-09T10:59:23;11.65;;;5.45;;
68803;SDS011;55787;52.678;13.314;2023-10-09T11:01:56;12.18;;;5.32;;
68803;SDS011;55787;52.678;13.314;2023-10-09T11:04:26;11.35;;;4.72;;
68803;SDS011;55787;52.678;13.314;2023-10-09T11:06:56;11.80;;;5.18;;
68803;SDS011;55787;52.678;13.314;2023-10-09T11:12:26;10.90;;;4.68;;
68803;SDS011;55787;52.678;13.314;2023-10-09T11:15:08;10.07;;;4.28;;
68803;SDS011;55787;52.678;13.314;2023-10-09T11:18:02;11.82;;;6.18;;
68803;SDS011;55787;52.678;13.314;2023-10-09T11:20:49;10.50;;;4.70;;
68803;SDS011;55787;52.678;13.314;2023-10-09T11:23:29;11.43;;;5.32;;
68803;SDS011;55787;52.678;13.314;2023-10-09T11:26:00;12.82;;;4.93;;
68803;SDS011;55787;52.678;13.314;2023-10-09T11:31:40;10.82;;;4.00;;
68803;SDS011;55787;52.678;13.314;2023-10-09T11:34:18;8.77;;;3.90;;
68803;SDS011;55787;52.678;13.314;2023-10-09T11:36:56;10.18;;;3.58;;
68803;SDS011;55787;52.678;13.314;2023-10-09T11:39:27;9.30;;;3.88;;
68803;SDS011;55787;52.678;13.314;2023-10-09T11:42:04;8.85;;;3.70;;
68803;SDS011;55787;52.678;13.314;2023-10-09T11:44:50;8.93;;;3.72;;
68803;SDS011;55787;52.678;13.314;2023-10-09T11:47:21;8.75;;;3.63;;
68803;SDS011;55787;52.678;13.314;2023-10-09T11:49:58;9.23;;;3.97;;
68803;SDS011;55787;52.678;13.314;2023-10-09T11:52:28;11.45;;;3.67;;
68803;SDS011;55787;52.678;13.314;2023-10-09T11:55:02;8.10;;;3.47;;
68803;SDS011;55787;52.678;13.314;2023-10-09T11:57:33;9.38;;;3.80;;
68803;SDS011;55787;52.678;13.314;2023-10-09T12:00:02;8.38;;;3.33;;
68803;SDS011;55787;52.678;13.314;2023-10-09T12:02:48;9.52;;;3.30;;
68803;SDS011;55787;52.678;13.314;2023-10-09T12:05:16;9.20;;;2.92;;
68803;SDS011;55787;52.678;13.314;2023-10-09T12:07:45;9.15;;;2.75;;
68803;SDS011;55787;52.678;13.314;2023-10-09T12:10:12;7.78;;;2.60;;
68803;SDS011;55787;52.678;13.314;2023-10-09T12:12:51;7.32;;;2.47;;
68803;SDS011;55787;52.678;13.314;2023-10-09T12:15:24;9.68;;;3.03;;
68803;SDS011;55787;52.678;13.314;2023-10-09T12:17:51;7.80;;;2.60;;
68803;SDS011;55787;52.678;13.314;2023-10-09T12:20:20;8.50;;;2.95;;
68803;SDS011;55787;52.678;13.314;2023-10-09T12:22:59;8.20;;;2.80;;
68803;SDS011;55787;52.678;13.314;2023-10-09T12:25:26;8.88;;;3.00;;
68803;SDS011;55787;52.678;13.314;2023-10-09T12:28:01;8.10;;;2.80;;
68803;SDS011;55787;52.678;13.314;2023-10-09T12:30:29;8.73;;;2.78;;
68803;SDS011;55787;52.678;13.314;2023-10-09T12:32:56;8.80;;;3.10;;
68803;SDS011;55787;52.678;13.314;2023-10-09T12:35:24;8.95;;;3.60;;
68803;SDS011;55787;52.678;13.314;2023-10-09T12:37:52;8.98;;;3.58;;
68803;SDS011;55787;52.678;13.314;2023-10-09T12:40:23;10.97;;;3.40;;
68803;SDS011;55787;52.678;13.314;2023-10-09T12:42:51;8.82;;;2.83;;
68803;SDS011;55787;52.678;13.314;2023-10-09T12:45:19;8.32;;;3.05;;
68803;SDS011;55787;52.678;13.314;2023-10-09T12:47:55;9.48;;;3.10;;
68803;SDS011;55787;52.678;13.314;2023-10-09T12:50:25;8.63;;;2.90;;
68803;SDS011;55787;52.678;13.314;2023-10-09T12:52:55;8.57;;;3.27;;
68803;SDS011;55787;52.678;13.314;2023-10-09T12:55:23;11.93;;;6.18;;
68803;SDS011;55787;52.678;13.314;2023-10-09T12:58:01;8.98;;;3.20;;
68803;SDS011;55787;52.678;13.314;2023-10-09T13:00:34;9.55;;;3.25;;
68803;SDS011;55787;52.678;13.314;2023-10-09T13:03:04;10.35;;;3.40;;
68803;SDS011;55787;52.678;13.314;2023-10-09T13:05:46;8.73;;;3.40;;
68803;SDS011;55787;52.678;13.314;2023-10-09T13:08:25;10.40;;;3.58;;
68803;SDS011;55787;52.678;13.314;2023-10-09T13:11:11;11.48;;;4.00;;
68803;SDS011;55787;52.678;13.314;2023-10-09T13:13:39;8.30;;;3.40;;
68803;SDS011;55787;52.678;13.314;2023-10-09T13:16:14;8.90;;;3.70;;
68803;SDS011;55787;52.678;13.314;2023-10-09T13:18:55;10.43;;;3.65;;
68803;SDS011;55787;52.678;13.314;2023-10-09T13:21:23;11.38;;;4.07;;
68803;SDS011;55787;52.678;13.314;2023-10-09T13:23:58;9.27;;;4.07;;
68803;SDS011;55787;52.678;13.314;2023-10-09T13:26:26;10.07;;;4.15;;
68803;SDS011;55787;52.678;13.314;2023-10-09T13:29:00;10.18;;;4.07;;
68803;SDS011;55787;52.678;13.314;2023-10-09T13:31:28;9.07;;;3.92;;
68803;SDS011;55787;52.678;13.314;2023-10-09T13:33:58;9.85;;;4.00;;
68803;SDS011;55787;52.678;13.314;2023-10-09T13:36:27;9.48;;;3.97;;
68803;SDS011;55787;52.678;13.314;2023-10-09T13:39:02;9.95;;;4.07;;
68803;SDS011;55787;52.678;13.314;2023-10-09T13:41:55;11.05;;;4.68;;
68803;SDS011;55787;52.678;13.314;2023-10-09T13:44:27;10.40;;;4.30;;
68803;SDS011;55787;52.678;13.314;2023-10-09T13:46:58;10.15;;;4.25;;
68803;SDS011;55787;52.678;13.314;2023-10-09T13:49:32;10.40;;;4.32;;
68803;SDS011;55787;52.678;13.314;2023-10-09T13:52:00;9.70;;;4.45;;
68803;SDS011;55787;52.678;13.314;2023-10-09T13:54:28;10.48;;;4.53;;
68803;SDS011;55787;52.678;13.314;2023-10-09T13:56:59;11.57;;;4.40;;
68803;SDS011;55787;52.678;13.314;2023-10-09T13:59:26;10.88;;;4.60;;
68803;SDS011;55787;52.678;13.314;2023-10-09T14:01:53;11.70;;;4.68;;
68803;SDS011;55787;52.678;13.314;2023-10-09T14:04:23;11.15;;;4.80;;
68803;SDS011;55787;52.678;13.314;2023-10-09T14:06:50;10.77;;;4.95;;
68803;SDS011;55787;52.678;13.314;2023-10-09T14:09:24;10.07;;;4.82;;
68803;SDS011;55787;52.678;13.314;2023-10-09T14:11:57;10.82;;;5.20;;
68803;SDS011;55787;52.678;13.314;2023-10-09T14:14:38;11.25;;;5.00;;
68803;SDS011;55787;52.678;13.314;2023-10-09T14:17:13;10.95;;;5.18;;
68803;SDS011;55787;52.678;13.314;2023-10-09T14:19:41;12.73;;;5.47;;
68803;SDS011;55787;52.678;13.314;2023-10-09T14:22:14;11.98;;;5.30;;
68803;SDS011;55787;52.678;13.314;2023-10-09T14:24:44;12.40;;;5.80;;
68803;SDS011;55787;52.678;13.314;2023-10-09T14:27:13;11.15;;;5.82;;
68803;SDS011;55787;52.678;13.314;2023-10-09T14:32:12;15.93;;;6.85;;
68803;SDS011;55787;52.678;13.314;2023-10-09T14:34:40;13.77;;;6.03;;
68803;SDS011;55787;52.678;13.314;2023-10-09T14:37:17;13.40;;;5.97;;
68803;SDS011;55787;52.678;13.314;2023-10-09T14:39:46;13.68;;;6.28;;
68803;SDS011;55787;52.678;13.314;2023-10-09T14:42:15;14.27;;;6.43;;
68803;SDS011;55787;52.678;13.314;2023-10-09T14:44:42;13.02;;;6.70;;
68803;SDS011;55787;52.678;13.314;2023-10-09T14:47:11;14.63;;;6.97;;
68803;SDS011;55787;52.678;13.314;2023-10-09T14:49:40;14.32;;;7.10;;
68803;SDS011;55787;52.678;13.314;2023-10-09T14:52:10;14.15;;;7.47;;
68803;SDS011;55787;52.678;13.314;2023-10-09T14:54:37;21.90;;;10.68;;
68803;SDS011;55787;52.678;13.314;2023-10-09T14:57:07;20.85;;;11.27;;
68803;SDS011;55787;52.678;13.314;2023-10-09T14:59:33;20.02;;;9.38;;
68803;SDS011;55787;52.678;13.314;2023-10-09T15:02:01;14.73;;;8.25;;
68803;SDS011;55787;52.678;13.314;2023-10-09T15:04:27;18.20;;;8.20;;
68803;SDS011;55787;52.678;13.314;2023-10-09T15:06:54;16.25;;;7.97;;
68803;SDS011;55787;52.678;13.314;2023-10-09T15:09:21;16.50;;;7.65;;
68803;SDS011;55787;52.678;13.314;2023-10-09T15:11:49;17.02;;;7.90;;
68803;SDS011;55787;52.678;13.314;2023-10-09T15:14:16;15.52;;;8.15;;
68803;SDS011;55787;52.678;13.314;2023-10-09T15:16:45;15.60;;;7.72;;
68803;SDS011;55787;52.678;13.314;2023-10-09T15:19:13;18.25;;;8.55;;
68803;SDS011;55787;52.678;13.314;2023-10-09T15:21:40;16.92;;;8.70;;
68803;SDS011;55787;52.678;13.314;2023-10-09T15:24:13;16.83;;;8.90;;
68803;SDS011;55787;52.678;13.314;2023-10-09T15:26:45;17.05;;;8.38;;
68803;SDS011;55787;52.678;13.314;2023-10-09T15:29:21;16.40;;;8.18;;
68803;SDS011;55787;52.678;13.314;2023-10-09T15:31:50;18.77;;;8.98;;
68803;SDS011;55787;52.678;13.314;2023-10-09T15:34:17;16.75;;;8.43;;
68803;SDS011;55787;52.678;13.314;2023-10-09T15:36:45;16.20;;;8.27;;
68803;SDS011;55787;52.678;13.314;2023-10-09T15:39:14;17.13;;;8.75;;
68803;SDS011;55787;52.678;13.314;2023-10-09T15:41:45;17.05;;;7.88;;
68803;SDS011;55787;52.678;13.314;2023-10-09T15:44:12;18.20;;;7.95;;